Time;durP1;ratioP1;P1;durP2;ratioP2;P2;SDS_P1;SDS_P2;PMS_P1;PMS_P2;Temp;Humidity;BMP_temperature;BMP_pressure;BME280_temperature;BME280_humidity;BME280_pressure;Samples;Min_cycle;Max_cycle;Signal;HPM_P1;HPM_P2
2024/01/14 00:02:07;;;;;;;50.63;16.88;;;;;;;;;;5052387;28;20013;-83
2024/01/14 00:04:33;;;;;;;54.15;17.75;;;;;;;;;;5070850;28;20051;-84
2024/01/14 00:06:59;;;;;;;47.35;16.77;;;;;;;;;;5068590;28;20089;-84
2024/01/14 00:09:25;;;;;;;45.25;16.02;;;;;;;;;;5041911;28;20037;-87
2024/01/14 00:11:51;;;;;;;38.22;15.68;;;;;;;;;;5043714;28;20024;-84
2024/01/14 00:14:17;;;;;;;45.65;16.60;;;;;;;;;;5045765;28;20055;-88
2024/01/14 00:16:44;;;;;;;48.03;16.95;;;;;;;;;;5064547;28;20082;-84
2024/01/14 00:19:10;;;;;;;49.65;16.58;;;;;;;;;;5040279;28;20045;-87
2024/01/14 00:21:36;;;;;;;50.00;17.95;;;-0.70;99.90;;;;;;5041958;28;20625;-86
2024/01/14 00:24:03;;;;;;;45.45;17.13;;;;;;;;;;5059272;28;20037;-83
2024/01/14 00:26:29;;;;;;;48.45;16.73;;;;;;;;;;5040100;28;20039;-83
2024/01/14 00:28:59;;;;;;;47.35;16.25;;;;;;;;;;5055028;28;20135;-85
2024/01/14 00:31:25;;;;;;;48.60;17.10;;;;;;;;;;5036313;28;20048;-83
2024/01/14 00:33:51;;;;;;;44.92;17.27;;;;;;;;;;5060292;28;20033;-82
2024/01/14 00:36:18;;;;;;;45.97;16.10;;;;;;;;;;5053754;28;20043;-86
2024/01/14 00:38:44;;;;;;;44.20;14.80;;;-0.60;99.90;;;;;;5043386;28;20139;-82
2024/01/14 00:41:11;;;;;;;38.80;14.40;;;;;;;;;;5041548;28;20549;-81
2024/01/14 00:43:37;;;;;;;38.83;14.93;;;;;;;;;;5041221;28;20051;-81
2024/01/14 00:46:03;;;;;;;41.53;15.27;;;;;;;;;;5038416;28;20490;-82
2024/01/14 00:48:29;;;;;;;44.28;15.70;;;;;;;;;;5041782;28;20056;-85
2024/01/14 00:51:25;;;;;;;42.83;15.57;;;-0.80;99.90;;;;;;5058788;28;20049;-81
2024/01/14 00:53:51;;;;;;;43.95;16.35;;;;;;;;;;5058710;28;21042;-84
2024/01/14 00:56:17;;;;;;;45.42;15.52;;;;;;;;;;5037995;28;20037;-84
2024/01/14 00:58:44;;;;;;;49.08;16.77;;;;;;;;;;5045416;28;20398;-81
2024/01/14 01:01:12;;;;;;;39.72;15.55;;;;;;;;;;5040738;28;20021;-82
2024/01/14 01:03:47;;;;;;;41.97;15.10;;;;;;;;;;5060011;28;20060;-83
2024/01/14 01:06:13;;;;;;;50.25;16.90;;;;;;;;;;5052729;28;20048;-81
2024/01/14 01:08:39;;;;;;;46.05;14.93;;;;;;;;;;5041360;28;20043;-85
2024/01/14 01:11:06;;;;;;;46.15;16.08;;;;;;;;;;5041938;28;20045;-82
2024/01/14 01:13:32;;;;;;;46.90;16.50;;;;;;;;;;5057495;28;20051;-85
2024/01/14 01:15:58;;;;;;;48.40;17.15;;;;;;;;;;5036900;28;20467;-81
2024/01/14 01:18:24;;;;;;;46.58;17.00;;;;;;;;;;5037228;28;20116;-85
2024/01/14 01:20:51;;;;;;;48.83;16.67;;;;;;;;;;5058659;28;20994;-82
2024/01/14 01:23:17;;;;;;;40.22;16.55;;;;;;;;;;5058481;28;20789;-82
2024/01/14 01:25:43;;;;;;;42.22;16.00;;;;;;;;;;5058230;28;20107;-81
2024/01/14 01:28:09;;;;;;;41.58;15.07;;;;;;;;;;5056553;28;20037;-83
2024/01/14 01:30:35;;;;;;;48.03;15.95;;;;;;;;;;5035448;28;20508;-84
2024/01/14 01:33:01;;;;;;;43.53;15.65;;;;;;;;;;5023368;28;20033;-80
2024/01/14 01:35:27;;;;;;;42.20;14.27;;;;;;;;;;5060224;28;20483;-85
2024/01/14 01:37:59;;;;;;;41.63;14.65;;;;;;;;;;5040864;28;20029;-81
2024/01/14 01:40:34;;;;;;;41.55;14.90;;;;;;;;;;5057936;28;20045;-84
2024/01/14 01:43:00;;;;;;;45.53;16.42;;;;;;;;;;5048260;28;20022;-83
2024/01/14 01:45:29;;;;;;;41.60;15.93;;;;;;;;;;5038104;28;20025;-83
2024/01/14 01:48:15;;;;;;;39.22;15.95;;;-1.00;99.90;;;;;;5055021;28;20059;-81
2024/01/14 01:50:51;;;;;;;;;;;;;;;;;;;;;
2024/01/14 01:53:20;;;;;;;44.42;16.10;;;;;;;;;;5054718;28;20085;-83
2024/01/14 01:55:50;;;;;;;54.75;16.98;;;;;;;;;;5038782;28;20029;-82
2024/01/14 01:58:18;;;;;;;40.67;15.15;;;;;;;;;;5035754;28;20025;-83
2024/01/14 02:00:44;;;;;;;40.70;14.13;;;;;;;;;;5037176;28;20096;-84
2024/01/14 02:03:14;;;;;;;39.38;15.02;;;;;;;;;;5038715;28;20697;-83
2024/01/14 02:05:47;;;;;;;43.50;15.05;;;;;;;;;;5037025;28;20021;-83
2024/01/14 02:08:26;;;;;;;;;;;;;;;;;;;;;
2024/01/14 02:11:12;;;;;;;41.72;15.13;;;-0.90;99.90;;;;;;5051793;28;20104;-83
2024/01/14 02:13:38;;;;;;;44.13;14.20;;;;;;;;;;5032702;28;20036;-82
2024/01/14 02:16:04;;;;;;;38.17;14.23;;;;;;;;;;5056401;28;20029;-83
2024/01/14 02:18:30;;;;;;;38.85;15.10;;;;;;;;;;5041993;28;20044;-83
2024/01/14 02:20:57;;;;;;;38.10;13.75;;;-0.80;99.90;;;;;;5040661;28;20059;-84
2024/01/14 02:23:28;;;;;;;51.47;16.35;;;-0.70;99.90;;;;;;5055332;28;20037;-82
2024/01/14 02:25:57;;;;;;;;;;;-0.70;99.90;;;;;;5055936;28;20044;-83
2024/01/14 02:28:23;;;;;;;43.88;16.40;;;;;;;;;;5035079;28;20299;-85
2024/01/14 02:30:50;;;;;;;47.20;15.98;;;;;;;;;;5058885;28;20284;-87
2024/01/14 02:33:16;;;;;;;47.20;16.80;;;;;;;;;;5038380;28;20039;-83
2024/01/14 02:35:43;;;;;;;45.38;15.38;;;;;;;;;;5055464;28;20033;-82
2024/01/14 02:38:09;;;;;;;40.65;14.80;;;;;;;;;;5035904;28;20037;-85
2024/01/14 02:40:35;;;;;;;45.35;15.45;;;;;;;;;;5056325;28;21423;-83
2024/01/14 02:43:01;;;;;;;44.17;16.05;;;;;;;;;;5057288;28;20033;-83
2024/01/14 02:45:30;;;;;;;42.00;14.75;;;-0.90;99.90;;;;;;5026019;28;20053;-84
2024/01/14 02:47:56;;;;;;;41.15;14.05;;;;;;;;;;5038711;28;20029;-84
2024/01/14 02:50:22;;;;;;;41.70;15.40;;;;;;;;;;5057962;28;20025;-83
2024/01/14 02:52:48;;;;;;;48.30;16.77;;;;;;;;;;5058865;28;20028;-84
2024/01/14 02:55:15;;;;;;;40.05;16.02;;;;;;;;;;5059390;28;20021;-84
2024/01/14 02:57:41;;;;;;;42.63;16.13;;;;;;;;;;5057297;28;20033;-86
2024/01/14 03:00:08;;;;;;;41.03;15.38;;;;;;;;;;5057643;28;20033;-83
2024/01/14 03:02:33;;;;;;;44.38;15.30;;;-0.90;99.90;;;;;;5041966;28;20075;-84
2024/01/14 03:04:59;;;;;;;39.85;14.45;;;-1.30;99.90;;;;;;5059014;28;20119;-83
2024/01/14 03:07:25;;;;;;;40.95;15.50;;;;;;;;;;5039414;28;20482;-86
2024/01/14 03:09:51;;;;;;;41.05;14.88;;;;;;;;;;5040722;28;20036;-84
2024/01/14 03:12:17;;;;;;;47.35;15.60;;;-1.00;99.90;;;;;;5039683;28;20029;-84
2024/01/14 03:14:42;;;;;;;46.30;14.82;;;-1.00;99.90;;;;;;5039896;28;20100;-81
2024/01/14 03:17:08;;;;;;;43.42;16.02;;;-1.10;99.90;;;;;;5038331;28;20041;-84
2024/01/14 03:19:33;;;;;;;47.10;16.48;;;-0.80;99.90;;;;;;5036914;28;20033;-83
2024/01/14 03:22:00;;;;;;;43.70;16.42;;;-1.30;99.90;;;;;;5056852;28;20367;-83
2024/01/14 03:24:26;;;;;;;40.28;14.55;;;;;;;;;;5037709;28;20029;-83
2024/01/14 03:26:52;;;;;;;34.50;12.90;;;;;;;;;;5038778;28;20029;-84
2024/01/14 03:29:17;;;;;;;39.28;14.43;;;-1.00;99.90;;;;;;5059827;28;20680;-83
2024/01/14 03:31:43;;;;;;;44.38;15.45;;;;;;;;;;5041993;28;20026;-87
2024/01/14 03:34:09;;;;;;;42.80;16.80;;;;;;;;;;5051372;28;20025;-87
2024/01/14 03:36:35;;;;;;;39.75;14.43;;;;;;;;;;5070502;28;20220;-86
2024/01/14 03:39:03;;;;;;;42.10;15.65;;;-1.20;99.90;;;;;;5045217;28;20055;-83
2024/01/14 03:41:30;;;;;;;43.53;16.42;;;;;;;;;;5057380;28;20025;-83
2024/01/14 03:43:56;;;;;;;35.20;13.15;;;;;;;;;;5036990;28;20049;-83
2024/01/14 03:46:22;;;;;;;43.05;15.35;;;;;;;;;;5035937;28;21872;-84
2024/01/14 03:48:48;;;;;;;45.05;15.38;;;-1.20;99.90;;;;;;5054084;28;20486;-87
2024/01/14 03:51:13;;;;;;;51.33;16.10;;;-1.20;99.90;;;;;;5056823;28;20033;-82
2024/01/14 03:53:39;;;;;;;43.70;15.05;;;;;;;;;;5040378;28;20037;-81
2024/01/14 03:56:05;;;;;;;45.75;15.18;;;;;;;;;;5036885;28;20471;-83
2024/01/14 03:58:31;;;;;;;41.08;15.10;;;-1.10;99.90;;;;;;5034802;28;20068;-81
2024/01/14 04:00:57;;;;;;;37.42;13.95;;;-1.20;99.90;;;;;;5036811;28;20395;-81
2024/01/14 04:03:23;;;;;;;42.63;14.82;;;;;;;;;;5039812;28;20051;-82
2024/01/14 04:05:49;;;;;;;41.30;15.30;;;;;;;;;;5057595;28;20037;-80
2024/01/14 04:08:15;;;;;;;44.45;14.40;;;;;;;;;;5056835;28;20475;-84
2024/01/14 04:10:41;;;;;;;40.35;14.65;;;;;;;;;;5054944;28;20087;-80
2024/01/14 04:13:07;;;;;;;45.65;15.40;;;-0.90;99.90;;;;;;5054893;28;20539;-82
2024/01/14 04:15:32;;;;;;;41.28;15.65;;;-1.00;99.90;;;;;;5059163;28;20071;-83
2024/01/14 04:17:58;;;;;;;38.15;13.73;;;;;;;;;;5025977;28;20044;-84
2024/01/14 04:20:25;;;;;;;40.28;14.43;;;;;;;;;;5058091;28;20028;-81
2024/01/14 04:22:51;;;;;;;44.58;15.70;;;;;;;;;;5039307;28;20407;-81
2024/01/14 04:25:17;;;;;;;40.05;14.60;;;;;;;;;;5044298;28;20112;-83
2024/01/14 04:27:43;;;;;;;39.33;14.77;;;;;;;;;;5040199;28;20028;-81
2024/01/14 04:30:09;;;;;;;46.67;17.17;;;;;;;;;;5041778;28;20032;-82
2024/01/14 04:32:36;;;;;;;45.88;15.95;;;;;;;;;;5059010;28;20046;-83
2024/01/14 04:35:02;;;;;;;46.28;16.98;;;;;;;;;;5061064;28;20029;-83
2024/01/14 04:37:27;;;;;;;51.63;16.48;;;-1.00;99.90;;;;;;5044645;28;20653;-81
2024/01/14 04:39:55;;;;;;;47.22;16.42;;;-1.00;99.90;;;;;;5039623;28;20036;-81
2024/01/14 04:42:21;;;;;;;47.65;17.77;;;-0.90;99.90;;;;;;5057043;28;20045;-81
2024/01/14 04:44:47;;;;;;;47.35;16.77;;;;;;;;;;5041646;28;20033;-83
2024/01/14 04:47:13;;;;;;;45.60;16.35;;;-1.00;99.90;;;;;;5057149;28;20040;-81
2024/01/14 04:49:39;;;;;;;50.00;16.98;;;;;;;;;;5058665;28;20048;-82
2024/01/14 04:52:04;;;;;;;48.08;16.48;;;-1.00;99.90;;;;;;5040577;28;20112;-84
2024/01/14 04:54:30;;;;;;;46.42;17.67;;;-1.00;99.90;;;;;;5054825;28;20039;-81
2024/01/14 04:56:57;;;;;;;55.13;18.92;;;;;;;;;;5055224;28;20032;-83
2024/01/14 04:59:23;;;;;;;54.58;20.60;;;-1.00;99.90;;;;;;5038446;28;20033;-81
2024/01/14 05:01:48;;;;;;;51.70;18.33;;;-1.00;99.90;;;;;;5040022;28;20033;-81
2024/01/14 05:04:14;;;;;;;54.28;18.50;;;-1.00;99.90;;;;;;5057771;28;20025;-82
2024/01/14 05:06:39;;;;;;;57.78;20.95;;;-1.00;99.90;;;;;;5039110;28;20029;-83
2024/01/14 05:09:05;;;;;;;54.20;19.15;;;-1.10;99.90;;;;;;5038737;28;20417;-83
2024/01/14 05:11:31;;;;;;;51.17;18.55;;;-0.30;99.90;;;;;;5040742;28;20048;-84
2024/01/14 05:13:57;;;;;;;55.67;19.55;;;;;;;;;;5035091;28;20056;-86
2024/01/14 05:16:24;;;;;;;53.72;18.63;;;;;;;;;;5052228;28;20040;-81
2024/01/14 05:18:50;;;;;;;56.88;19.92;;;;;;;;;;5052853;28;20029;-83
2024/01/14 05:21:17;;;;;;;51.05;18.85;;;-1.40;99.90;;;;;;5053793;28;20032;-83
2024/01/14 05:23:43;;;;;;;66.00;21.60;;;-2.00;99.90;;;;;;5058178;28;20081;-83
2024/01/14 05:26:10;;;;;;;59.67;20.42;;;-1.40;99.90;;;;;;5051796;28;20033;-83
2024/01/14 05:28:35;;;;;;;61.97;19.83;;;-1.40;99.90;;;;;;5037788;28;20025;-83
2024/01/14 05:31:01;;;;;;;55.97;19.88;;;;;;;;;;5038271;28;20039;-83
2024/01/14 05:33:27;;;;;;;58.72;20.67;;;-1.30;99.90;;;;;;5035587;28;20048;-84
2024/01/14 05:35:53;;;;;;;53.85;18.02;;;-1.30;99.90;;;;;;5037014;28;20024;-83
2024/01/14 05:38:19;;;;;;;62.10;21.25;;;;;;;;;;5037083;28;20044;-82
2024/01/14 05:40:45;;;;;;;61.13;21.38;;;;;;;;;;5031540;28;20037;-85
2024/01/14 05:43:11;;;;;;;59.20;20.77;;;;;;;;;;5052990;28;20033;-82
2024/01/14 05:45:37;;;;;;;59.42;21.00;;;-1.30;99.90;;;;;;5053298;28;20025;-84
2024/01/14 05:48:03;;;;;;;60.40;20.83;;;0.70;99.90;;;;;;5057651;28;20036;-82
2024/01/14 05:50:28;;;;;;;61.40;21.02;;;-1.30;99.90;;;;;;5036730;28;20114;-82
2024/01/14 05:52:54;;;;;;;60.97;20.42;;;-1.30;99.90;;;;;;5040134;28;20037;-83
2024/01/14 05:55:20;;;;;;;64.05;22.27;;;;;;;;;;5050939;28;20005;-80
2024/01/14 05:57:46;;;;;;;70.38;21.88;;;;;;;;;;5047672;28;20028;-83
2024/01/14 06:00:13;;;;;;;55.83;19.30;;;;;;;;;;5050847;28;20049;-82
2024/01/14 06:02:42;;;;;;;57.45;19.25;;;;;;;;;;5050537;28;20017;-84
2024/01/14 06:05:08;;;;;;;62.08;21.10;;;;;;;;;;5070061;28;20037;-84
2024/01/14 06:07:35;;;;;;;56.35;19.83;;;;;;;;;;5046236;28;20033;-83
2024/01/14 06:10:01;;;;;;;69.65;20.35;;;;;;;;;;5068096;28;20025;-85
2024/01/14 06:12:27;;;;;;;60.88;19.30;;;;;;;;;;5047231;28;20025;-86
2024/01/14 06:14:53;;;;;;;55.97;18.90;;;;;;;;;;5054904;28;20455;-84
2024/01/14 06:17:19;;;;;;;65.15;20.00;;;;;;;;;;5038063;28;20074;-84
2024/01/14 06:19:44;;;;;;;57.58;19.33;;;-1.30;99.90;;;;;;5052697;28;20063;-86
2024/01/14 06:22:12;;;;;;;61.45;19.77;;;-1.50;99.90;;;;;;5031505;28;20052;-83
2024/01/14 06:24:38;;;;;;;60.92;19.27;;;;;;;;;;5035950;28;20049;-82
2024/01/14 06:27:04;;;;;;;58.65;19.55;;;;;;;;;;5029523;28;20040;-81
2024/01/14 06:29:30;;;;;;;65.75;21.52;;;-1.40;99.90;;;;;;5052090;28;20115;-84
2024/01/14 06:31:58;;;;;;;64.95;20.15;;;;;;;;;;5054277;28;20032;-83
2024/01/14 06:34:24;;;;;;;68.97;21.58;;;;;;;;;;5057812;28;20972;-82
2024/01/14 06:36:50;;;;;;;60.75;19.42;;;;;;;;;;5057180;28;20037;-84
2024/01/14 06:39:18;;;;;;;63.38;20.40;;;;;;;;;;5036806;28;20037;-86
2024/01/14 06:41:44;;;;;;;54.22;18.48;;;;;;;;;;5038234;28;20099;-82
2024/01/14 06:44:10;;;;;;;62.20;20.27;;;;;;;;;;5050864;28;20036;-84
2024/01/14 06:46:43;;;;;;;60.63;20.13;;;-1.20;99.90;;;;;;5053231;28;20033;-84
2024/01/14 06:49:09;;;;;;;65.30;21.10;;;;;;;;;;5037258;28;20041;-84
2024/01/14 06:51:45;;;;;;;58.47;19.48;;;-1.20;99.90;;;;;;5071460;28;20358;-90
2024/01/14 06:54:11;;;;;;;58.33;18.05;;;-1.20;99.90;;;;;;5068212;28;20030;-86
2024/01/14 06:56:46;;;;;;;57.30;17.73;;;-1.40;99.90;;;;;;5068877;28;20025;-86
2024/01/14 06:59:19;;;;;;;53.92;19.67;;;-1.60;99.90;;;;;;5050524;28;20025;-84
2024/01/14 07:01:48;;;;;;;56.55;17.70;;;-1.60;99.90;;;;;;5058962;28;20513;-84
2024/01/14 07:04:15;;;;;;;54.58;16.67;;;;;;;;;;5051153;28;20043;-84
2024/01/14 07:06:41;;;;;;;44.53;14.68;;;;;;;;;;5058282;28;20065;-84
2024/01/14 07:09:10;;;;;;;45.53;14.70;;;;;;;;;;5055888;28;20247;-83
2024/01/14 07:11:36;;;;;;;51.50;15.68;;;;;;;;;;5056197;28;20025;-83
2024/01/14 07:14:02;;;;;;;37.85;14.13;;;;;;;;;;5034177;28;20034;-85
2024/01/14 07:16:29;;;;;;;41.38;13.10;;;;;;;;;;5041343;28;20110;-81
2024/01/14 07:18:55;;;;;;;45.20;15.13;;;;;;;;;;5056655;28;20037;-86
2024/01/14 07:21:23;;;;;;;49.92;14.93;;;;;;;;;;5038993;28;20029;-83
2024/01/14 07:23:49;;;;;;;44.83;14.10;;;;;;;;;;5038713;28;20028;-84
2024/01/14 07:26:16;;;;;;;44.15;14.70;;;-1.50;99.90;;;;;;5057359;28;20048;-83
2024/01/14 07:28:42;;;;;;;42.55;13.10;;;;;;;;;;5055085;28;20044;-85
2024/01/14 07:31:09;;;;;;;48.17;14.68;;;;;;;;;;5041274;28;20048;-85
2024/01/14 07:33:35;;;;;;;49.03;15.05;;;;;;;;;;5042731;28;20394;-85
2024/01/14 07:36:01;;;;;;;44.67;14.68;;;;;;;;;;5058688;28;20026;-83
2024/01/14 07:38:27;;;;;;;48.60;15.23;;;;;;;;;;5060019;28;20039;-82
2024/01/14 07:40:53;;;;;;;39.65;13.25;;;;;;;;;;5060109;28;20056;-82
2024/01/14 07:43:19;;;;;;;42.55;14.68;;;;;;;;;;5062679;28;20032;-84
2024/01/14 07:45:45;;;;;;;43.97;13.60;;;-1.80;99.90;;;;;;5045850;28;20961;-84
2024/01/14 07:48:11;;;;;;;49.10;14.20;;;;;;;;;;5066557;28;20060;-84
2024/01/14 07:50:37;;;;;;;43.03;14.10;;;;;;;;;;5046123;28;20059;-84
2024/01/14 07:53:03;;;;;;;41.45;13.27;;;;;;;;;;5067916;28;20025;-84
2024/01/14 07:55:30;;;;;;;38.83;12.82;;;;;;;;;;5064890;28;20060;-84
2024/01/14 07:57:57;;;;;;;39.22;13.30;;;;;;;;;;5053474;28;20026;-85
2024/01/14 08:00:23;;;;;;;37.63;13.68;;;;;;;;;;5050124;28;20039;-86
2024/01/14 08:02:49;;;;;;;37.03;12.82;;;;;;;;;;5054623;28;20033;-85
2024/01/14 08:05:15;;;;;;;35.35;11.75;;;;;;;;;;5067147;28;20039;-85
2024/01/14 08:07:41;;;;;;;36.58;12.95;;;;;;;;;;5065672;28;20059;-85
2024/01/14 08:10:07;;;;;;;39.90;12.10;;;-1.80;99.90;;;;;;5064336;28;20044;-84
2024/01/14 08:12:33;;;;;;;37.83;12.55;;;;;;;;;;5045750;28;20041;-86
2024/01/14 08:14:59;;;;;;;37.15;11.85;;;;;;;;;;5067170;28;20059;-85
2024/01/14 08:17:26;;;;;;;35.20;11.18;;;;;;;;;;5049305;28;20475;-84
2024/01/14 08:19:52;;;;;;;33.08;10.70;;;;;;;;;;5047247;28;20037;-83
2024/01/14 08:22:18;;;;;;;31.38;9.85;;;;;;;;;;5043622;28;20036;-83
2024/01/14 08:24:44;;;;;;;34.20;10.70;;;;;;;;;;5065373;28;20037;-83
2024/01/14 08:27:10;;;;;;;27.75;9.80;;;;;;;;;;5044088;28;20025;-84
2024/01/14 08:29:36;;;;;;;32.85;11.20;;;;;;;;;;5047457;28;20414;-85
2024/01/14 08:32:02;;;;;;;33.17;11.05;;;-1.80;99.90;;;;;;5038461;28;20030;-85
2024/01/14 08:34:31;;;;;;;32.85;11.25;;;;;;;;;;5040987;28;20096;-84
2024/01/14 08:36:57;;;;;;;34.50;11.45;;;;;;;;;;5042853;28;20468;-84
2024/01/14 08:39:23;;;;;;;36.30;12.68;;;;;;;;;;5041770;28;20072;-82
2024/01/14 08:41:49;;;;;;;32.70;11.32;;;;;;;;;;5043097;28;20028;-82
2024/01/14 08:44:15;;;;;;;33.92;10.77;;;;;;;;;;5044797;28;20119;-83
2024/01/14 08:46:42;;;;;;;39.28;11.18;;;;;;;;;;5056043;28;20029;-81
2024/01/14 08:49:08;;;;;;;37.55;10.90;;;;;;;;;;5040141;28;20080;-83
2024/01/14 08:51:34;;;;;;;35.17;12.00;;;;;;;;;;5056300;28;20075;-82
2024/01/14 08:54:01;;;;;;;37.30;13.00;;;;;;;;;;5048806;28;20028;-84
2024/01/14 08:56:28;;;;;;;37.80;12.30;;;-2.00;99.90;;;;;;5069346;28;20482;-84
2024/01/14 08:58:56;;;;;;;35.20;11.90;;;;;;;;;;5048295;28;20036;-83
2024/01/14 09:01:22;;;;;;;37.72;11.23;;;;;;;;;;5046584;28;20040;-83
2024/01/14 09:03:48;;;;;;;40.55;13.48;;;;;;;;;;5060902;28;20032;-83
2024/01/14 09:06:14;;;;;;;36.80;12.20;;;;;;;;;;5055871;28;20437;-85
2024/01/14 09:08:40;;;;;;;36.20;13.32;;;;;;;;;;5050148;28;20029;-82
2024/01/14 09:11:07;;;;;;;32.17;10.18;;;;;;;;;;5047529;28;20498;-82
2024/01/14 09:13:33;;;;;;;32.70;11.25;;;;;;;;;;5055259;28;20033;-83
2024/01/14 09:16:00;;;;;;;35.05;11.77;;;;;;;;;;5036988;28;20028;-85
2024/01/14 09:18:26;;;;;;;33.97;10.32;;;;;;;;;;5056275;28;20119;-83
2024/01/14 09:20:52;;;;;;;33.08;11.02;;;;;;;;;;5055723;28;20033;-81
2024/01/14 09:23:18;;;;;;;35.92;12.13;;;;;;;;;;5054923;28;20082;-81
2024/01/14 09:25:44;;;;;;;31.88;11.73;;;;;;;;;;5037936;28;20048;-86
2024/01/14 09:28:11;;;;;;;32.60;11.40;;;;;;;;;;5051727;28;20036;-84
2024/01/14 09:30:38;;;;;;;30.52;11.63;;;;;;;;;;5034175;28;20052;-83
2024/01/14 09:33:04;;;;;;;29.00;11.73;;;;;;;;;;5054476;28;20045;-87
2024/01/14 09:35:30;;;;;;;33.92;12.98;;;;;;;;;;5054848;28;20060;-83
2024/01/14 09:37:56;;;;;;;32.13;12.45;;;;;;;;;;5034641;28;20040;-85
2024/01/14 09:40:23;;;;;;;38.15;13.50;;;;;;;;;;5049157;28;20033;-85
2024/01/14 09:42:59;;;;;;;39.10;13.45;;;;;;;;;;5055695;28;20025;-85
2024/01/14 09:45:28;;;;;;;38.05;13.52;;;;;;;;;;5056693;28;20036;-85
2024/01/14 09:47:56;;;;;;;41.05;13.35;;;-2.30;99.90;;;;;;5038644;28;20029;-83
2024/01/14 09:50:22;;;;;;;36.22;13.23;;;;;;;;;;5042243;28;20033;-82
2024/01/14 09:52:51;;;;;;;39.72;15.10;;;-2.20;99.90;;;;;;5039041;28;20025;-82
2024/01/14 09:55:20;;;;;;;35.33;12.63;;;;;;;;;;5060447;28;20033;-82
2024/01/14 09:57:49;;;;;;;35.78;12.73;;;;;;;;;;5064062;28;20783;-83
2024/01/14 10:00:16;;;;;;;38.38;12.02;;;;;;;;;;5061016;28;20020;-84
2024/01/14 10:02:45;;;;;;;43.53;14.40;;;;;;;;;;5057161;28;20055;-85
2024/01/14 10:05:11;;;;;;;43.08;15.30;;;;;;;;;;5054199;28;20025;-84
2024/01/14 10:07:38;;;;;;;43.70;13.68;;;;;;;;;;5070984;28;20021;-82
2024/01/14 10:10:07;;;;;;;33.13;11.45;;;;;;;;;;5048072;28;20033;-83
2024/01/14 10:12:36;;;;;;;41.28;15.55;;;;;;;;;;5038844;28;20032;-85
2024/01/14 10:15:05;;;;;;;43.22;13.80;;;;;;;;;;5045373;28;20028;-83
2024/01/14 10:17:33;;;;;;;42.05;14.32;;;;;;;;;;5041822;28;20057;-85
2024/01/14 10:20:06;;;;;;;41.28;14.45;;;;;;;;;;5040908;28;20500;-84
2024/01/14 10:22:33;;;;;;;48.78;15.80;;;;;;;;;;5038476;28;20029;-83
2024/01/14 10:24:59;;;;;;;43.80;14.90;;;;;;;;;;5039668;28;20739;-84
2024/01/14 10:27:26;;;;;;;42.08;13.98;;;;;;;;;;5032942;28;20035;-82
2024/01/14 10:29:52;;;;;;;47.67;16.40;;;;;;;;;;5060780;28;20131;-82
2024/01/14 10:32:18;;;;;;;38.78;14.77;;;-1.90;99.90;;;;;;5052171;28;20089;-81
2024/01/14 10:34:45;;;;;;;39.63;13.75;;;-1.80;99.90;;;;;;5044151;28;20044;-83
2024/01/14 10:37:12;;;;;;;40.13;14.55;;;;;;;;;;5037554;28;20055;-82
2024/01/14 10:39:38;;;;;;;43.70;13.82;;;;;;;;;;5050989;28;20063;-81
2024/01/14 10:42:04;;;;;;;43.58;13.57;;;;;;;;;;5055444;28;20028;-80
2024/01/14 10:44:36;;;;;;;45.53;14.98;;;;;;;;;;5049747;28;20029;-84
2024/01/14 10:47:03;;;;;;;44.33;14.93;;;;;;;;;;5031409;28;20032;-84
2024/01/14 10:49:30;;;;;;;43.28;14.23;;;;;;;;;;5050007;28;20048;-81
2024/01/14 10:52:10;;;;;;;61.08;19.23;;;0.30;99.90;;;;;;5052096;28;20059;-83
2024/01/14 10:54:39;;;;;;;50.90;16.45;;;;;;;;;;5040258;28;20036;-80
2024/01/14 10:57:05;;;;;;;77.50;27.52;;;;;;;;;;5029276;28;20043;-83
2024/01/14 10:59:35;;;;;;;52.88;17.27;;;;;;;;;;5038073;28;20036;-84
2024/01/14 11:02:02;;;;;;;63.80;19.98;;;;;;;;;;5035509;28;20083;-81
2024/01/14 11:04:28;;;;;;;56.55;17.70;;;;;;;;;;5049385;28;20491;-84
2024/01/14 11:06:55;;;;;;;58.22;18.08;;;;;;;;;;5055243;28;20470;-84
2024/01/14 11:09:22;;;;;;;62.55;18.70;;;;;;;;;;5039061;28;20033;-83
2024/01/14 11:12:02;;;;;;;58.20;19.45;;;;;;;;;;5047284;28;20032;-84
2024/01/14 11:14:47;;;;;;;58.90;19.73;;;-1.80;99.90;;;;;;5055376;28;20479;-83
2024/01/14 11:17:24;;;;;;;51.00;16.63;;;;;;;;;;5054363;28;20044;-81
2024/01/14 11:19:50;;;;;;;60.90;18.85;;;;;;;;;;5054679;28;20112;-82
2024/01/14 11:22:20;;;;;;;57.13;16.60;;;;;;;;;;5056433;28;20025;-83
2024/01/14 11:24:50;;;;;;;60.97;17.23;;;;;;;;;;5055122;28;20111;-82
2024/01/14 11:27:16;;;;;;;59.22;17.63;;;;;;;;;;5036787;28;20040;-82
2024/01/14 11:29:43;;;;;;;60.88;17.88;;;;;;;;;;5052227;28;20041;-84
2024/01/14 11:32:10;;;;;;;70.28;18.50;;;;;;;;;;5035755;28;20457;-80
2024/01/14 11:34:54;;;;;;;58.08;18.10;;;;;;;;;;5057006;28;20051;-81
2024/01/14 11:37:30;;;;;;;65.68;19.08;;;;;;;;;;5038597;28;20097;-84
2024/01/14 11:40:08;;;;;;;61.13;19.33;;;;;;;;;;5055482;28;20032;-84
2024/01/14 11:42:55;;;;;;;68.68;20.50;;;;;;;;;;5051799;28;20029;-83
2024/01/14 11:45:30;;;;;;;66.25;20.55;;;;;;;;;;5053170;28;20044;-81
2024/01/14 11:47:57;;;;;;;65.65;19.17;;;;;;;;;;5054386;28;20032;-84
2024/01/14 11:50:27;;;;;;;68.53;19.63;;;;;;;;;;5038907;28;20041;-85
2024/01/14 11:53:19;;;;;;;61.55;17.60;;;;;;;;;;5053863;28;20058;-85
2024/01/14 11:55:50;;;;;;;50.78;16.00;;;;;;;;;;5043649;28;20040;-83
2024/01/14 11:58:25;;;;;;;;;;;-1.70;99.90;;;;;;5048398;28;20037;-82
2024/01/14 12:00:52;;;;;;;58.47;16.67;;;;;;;;;;5053080;28;19911;-81
2024/01/14 12:03:21;;;;;;;65.13;19.67;;;;;;;;;;5034806;28;20087;-83
2024/01/14 12:05:50;;;;;;;55.38;16.77;;;;;;;;;;5034214;28;20147;-83
2024/01/14 12:08:18;;;;;;;60.30;16.75;;;;;;;;;;5056925;28;20044;-85
2024/01/14 12:11:01;;;;;;;50.30;16.08;;;-1.50;99.90;;;;;;5056528;28;20048;-82
2024/01/14 12:13:27;;;;;;;64.47;17.25;;;;;;;;;;5034809;28;20128;-81
2024/01/14 12:15:53;;;;;;;53.42;16.58;;;;;;;;;;5057361;28;20072;-81
2024/01/14 12:18:19;;;;;;;56.75;16.52;;;;;;;;;;5055006;28;20029;-82
2024/01/14 12:20:45;;;;;;;46.53;13.15;;;;;;;;;;5056638;28;20032;-83
2024/01/14 12:23:11;;;;;;;62.42;17.40;;;;;;;;;;5037455;28;21256;-82
2024/01/14 12:25:39;;;;;;;62.67;18.83;;;-1.60;99.90;;;;;;5052075;28;20728;-84
2024/01/14 12:28:05;;;;;;;53.83;18.48;;;;;;;;;;5056820;28;20017;-83
2024/01/14 12:30:36;;;;;;;56.08;16.17;;;;;;;;;;5049849;28;20033;-83
2024/01/14 12:33:08;;;;;;;59.15;16.25;;;-1.70;99.90;;;;;;5032035;28;20024;-81
2024/01/14 12:35:35;;;;;;;63.92;17.75;;;;;;;;;;5049834;28;20489;-84
2024/01/14 12:38:02;;;;;;;59.67;18.05;;;;;;;;;;5031688;28;20036;-84
2024/01/14 12:40:28;;;;;;;55.97;16.27;;;;;;;;;;5033023;28;20063;-83
2024/01/14 12:42:55;;;;;;;61.38;18.75;;;;;;;;;;5048702;28;20056;-81
2024/01/14 12:45:21;;;;;;;60.13;18.35;;;;;;;;;;5051781;28;20029;-82
2024/01/14 12:48:00;;;;;;;64.18;18.70;;;;;;;;;;5033144;28;20033;-83
2024/01/14 12:50:27;;;;;;;64.50;17.80;;;-1.70;99.90;;;;;;5036731;28;20075;-84
2024/01/14 12:53:01;;;;;;;57.28;17.70;;;-1.70;99.90;;;;;;5035560;28;20029;-81
2024/01/14 12:55:29;;;;;;;63.47;18.10;;;;;;;;;;5057299;28;20471;-83
2024/01/14 12:57:57;;;;;;;65.50;18.80;;;;;;;;;;5055654;28;20039;-83
2024/01/14 13:00:26;;;;;;;66.80;19.05;;;;;;;;;;5054082;28;20037;-85
2024/01/14 13:02:52;;;;;;;74.07;21.35;;;;;;;;;;5034142;28;20142;-83
2024/01/14 13:05:18;;;;;;;56.55;18.20;;;;;;;;;;5034030;28;20029;-83
2024/01/14 13:07:45;;;;;;;63.67;20.20;;;;;;;;;;5051592;28;20043;-82
2024/01/14 13:10:11;;;;;;;60.92;18.33;;;;;;;;;;5052550;28;20500;-84
2024/01/14 13:12:37;;;;;;;59.25;19.75;;;;;;;;;;5030613;28;20124;-84
2024/01/14 13:15:05;;;;;;;59.00;19.73;;;;;;;;;;5049751;28;20477;-83
2024/01/14 13:17:31;;;;;;;67.20;18.42;;;;;;;;;;5031430;28;20652;-81
2024/01/14 13:20:05;;;;;;;63.58;19.65;;;;;;;;;;5033451;28;20025;-84
2024/01/14 13:22:33;;;;;;;54.55;18.08;;;;;;;;;;5036370;28;20056;-84
2024/01/14 13:24:59;;;;;;;51.15;13.77;;;;;;;;;;5037666;28;20119;-81
2024/01/14 13:27:26;;;;;;;56.83;18.60;;;;;;;;;;5067582;28;20029;-86
2024/01/14 13:29:52;;;;;;;57.38;16.02;;;;;;;;;;5056425;28;20021;-84
2024/01/14 13:32:18;;;;;;;49.45;17.23;;;;;;;;;;5051839;28;20040;-86
2024/01/14 13:34:44;;;;;;;53.15;17.60;;;;;;;;;;5067590;28;20021;-86
2024/01/14 13:37:10;;;;;;;51.00;16.88;;;;;;;;;;5066854;28;20005;-85
2024/01/14 13:40:06;;;;;;;50.08;17.02;;;-1.30;99.90;;;;;;5044109;28;20033;-86
2024/01/14 13:42:58;;;;;;;57.13;16.00;;;;;;;;;;5043505;28;20033;-84
2024/01/14 13:45:23;;;;;;;;;;;-1.20;99.90;;;;;;5040577;28;20115;-83
2024/01/14 13:47:49;;;;;;;55.80;15.38;;;;;;;;;;5035032;28;19940;-81
2024/01/14 13:50:16;;;;;;;48.72;15.13;;;;;;;;;;5032053;28;20025;-83
2024/01/14 13:52:42;;;;;;;49.55;15.95;;;;;;;;;;5046154;28;20025;-83
2024/01/14 13:55:11;;;;;;;55.03;16.35;;;;;;;;;;5047997;28;20037;-81
2024/01/14 13:57:37;;;;;;;66.13;19.02;;;;;;;;;;5048054;28;20032;-83